sensor_id;sensor_type;location;lat;lon;timestamp;P1;durP1;ratioP1;P2;durP2;ratioP2
28068;SDS011;15382;47.578;8.086;2022-08-04T00:03:27;1.65;;;1.50;;
28068;SDS011;15382;47.578;8.086;2022-08-04T00:13:43;3.63;;;1.25;;
28068;SDS011;15382;47.578;8.086;2022-08-04T00:23:51;6.82;;;1.45;;
28068;SDS011;15382;47.578;8.086;2022-08-04T00:33:54;3.58;;;1.77;;
28068;SDS011;15382;47.578;8.086;2022-08-04T00:54:25;2.95;;;1.50;;
28068;SDS011;15382;47.578;8.086;2022-08-04T01:05:01;2.88;;;1.63;;
28068;SDS011;15382;47.578;8.086;2022-08-04T01:15:08;2.40;;;1.88;;
28068;SDS011;15382;47.578;8.086;2022-08-04T01:35:57;2.38;;;1.70;;
28068;SDS011;15382;47.578;8.086;2022-08-04T01:46:04;2.95;;;1.67;;
28068;SDS011;15382;47.578;8.086;2022-08-04T01:56:06;2.90;;;1.77;;
28068;SDS011;15382;47.578;8.086;2022-08-04T02:26:47;3.65;;;2.10;;
28068;SDS011;15382;47.578;8.086;2022-08-04T02:36:50;5.28;;;1.85;;
28068;SDS011;15382;47.578;8.086;2022-08-04T02:46:52;3.22;;;2.05;;
28068;SDS011;15382;47.578;8.086;2022-08-04T02:56:54;2.78;;;2.15;;
28068;SDS011;15382;47.578;8.086;2022-08-04T04:30:47;2.90;;;2.20;;
28068;SDS011;15382;47.578;8.086;2022-08-04T04:51:19;4.72;;;2.00;;
28068;SDS011;15382;47.578;8.086;2022-08-04T05:12:13;4.20;;;2.22;;
28068;SDS011;15382;47.578;8.086;2022-08-04T05:22:38;3.42;;;2.30;;
28068;SDS011;15382;47.578;8.086;2022-08-04T05:32:44;3.75;;;2.40;;
28068;SDS011;15382;47.578;8.086;2022-08-04T05:42:57;3.25;;;2.40;;
28068;SDS011;15382;47.578;8.086;2022-08-04T05:53:00;5.28;;;2.50;;
28068;SDS011;15382;47.578;8.086;2022-08-04T06:03:03;6.55;;;2.53;;
28068;SDS011;15382;47.578;8.086;2022-08-04T06:13:06;4.80;;;2.70;;
28068;SDS011;15382;47.578;8.086;2022-08-04T06:23:10;6.72;;;2.28;;
28068;SDS011;15382;47.578;8.086;2022-08-04T06:33:15;3.78;;;2.72;;
28068;SDS011;15382;47.578;8.086;2022-08-04T06:43:32;3.88;;;2.70;;
28068;SDS011;15382;47.578;8.086;2022-08-04T06:53:33;6.28;;;2.40;;
28068;SDS011;15382;47.578;8.086;2022-08-04T07:03:34;3.85;;;2.33;;
28068;SDS011;15382;47.578;8.086;2022-08-04T07:13:36;3.03;;;2.20;;
28068;SDS011;15382;47.578;8.086;2022-08-04T07:23:37;3.90;;;2.58;;
28068;SDS011;15382;47.578;8.086;2022-08-04T07:33:39;6.40;;;2.28;;
28068;SDS011;15382;47.578;8.086;2022-08-04T07:43:41;6.22;;;2.75;;
28068;SDS011;15382;47.578;8.086;2022-08-04T07:53:43;10.50;;;2.20;;
28068;SDS011;15382;47.578;8.086;2022-08-04T08:03:44;6.90;;;2.40;;
28068;SDS011;15382;47.578;8.086;2022-08-04T08:13:46;9.50;;;2.50;;
28068;SDS011;15382;47.578;8.086;2022-08-04T08:23:48;8.57;;;2.42;;
28068;SDS011;15382;47.578;8.086;2022-08-04T08:33:50;4.50;;;2.38;;
28068;SDS011;15382;47.578;8.086;2022-08-04T09:36:14;8.38;;;1.55;;
28068;SDS011;15382;47.578;8.086;2022-08-04T09:46:31;5.43;;;1.08;;
28068;SDS011;15382;47.578;8.086;2022-08-04T09:56:40;2.47;;;1.10;;
28068;SDS011;15382;47.578;8.086;2022-08-04T10:07:01;13.90;;;1.88;;
28068;SDS011;15382;47.578;8.086;2022-08-04T10:27:37;1.40;;;1.03;;
28068;SDS011;15382;47.578;8.086;2022-08-04T10:48:12;1.25;;;0.70;;
28068;SDS011;15382;47.578;8.086;2022-08-04T10:58:39;3.42;;;0.70;;
28068;SDS011;15382;47.578;8.086;2022-08-04T11:08:49;1.23;;;0.73;;
28068;SDS011;15382;47.578;8.086;2022-08-04T11:29:21;3.75;;;1.23;;
28068;SDS011;15382;47.578;8.086;2022-08-04T11:39:49;4.30;;;0.80;;
28068;SDS011;15382;47.578;8.086;2022-08-04T11:50:03;3.30;;;0.85;;
28068;SDS011;15382;47.578;8.086;2022-08-04T12:00:10;1.30;;;0.60;;
28068;SDS011;15382;47.578;8.086;2022-08-04T12:20:29;2.80;;;1.20;;
28068;SDS011;15382;47.578;8.086;2022-08-04T12:30:36;3.97;;;0.85;;
28068;SDS011;15382;47.578;8.086;2022-08-04T12:50:49;4.88;;;1.00;;
28068;SDS011;15382;47.578;8.086;2022-08-04T13:00:55;1.85;;;0.80;;
28068;SDS011;15382;47.578;8.086;2022-08-04T13:10:59;1.48;;;1.00;;
28068;SDS011;15382;47.578;8.086;2022-08-04T13:21:20;2.53;;;1.00;;
28068;SDS011;15382;47.578;8.086;2022-08-04T13:31:23;2.03;;;1.00;;
28068;SDS011;15382;47.578;8.086;2022-08-04T13:41:27;1.15;;;0.82;;
28068;SDS011;15382;47.578;8.086;2022-08-04T13:51:29;4.25;;;1.10;;
28068;SDS011;15382;47.578;8.086;2022-08-04T14:01:31;2.92;;;1.00;;
28068;SDS011;15382;47.578;8.086;2022-08-04T14:11:36;2.25;;;0.90;;
28068;SDS011;15382;47.578;8.086;2022-08-04T14:21:39;3.17;;;0.98;;
28068;SDS011;15382;47.578;8.086;2022-08-04T14:31:40;1.23;;;0.77;;
28068;SDS011;15382;47.578;8.086;2022-08-04T14:41:46;2.25;;;0.80;;
28068;SDS011;15382;47.578;8.086;2022-08-04T14:51:52;0.95;;;0.80;;
28068;SDS011;15382;47.578;8.086;2022-08-04T15:01:54;1.15;;;0.90;;
28068;SDS011;15382;47.578;8.086;2022-08-04T15:11:56;1.42;;;0.90;;
28068;SDS011;15382;47.578;8.086;2022-08-04T15:21:57;2.87;;;0.97;;
28068;SDS011;15382;47.578;8.086;2022-08-04T15:32:00;2.80;;;1.35;;
28068;SDS011;15382;47.578;8.086;2022-08-04T15:42:13;1.67;;;1.05;;
28068;SDS011;15382;47.578;8.086;2022-08-04T15:52:20;2.58;;;0.90;;
28068;SDS011;15382;47.578;8.086;2022-08-04T16:02:28;1.00;;;0.70;;
28068;SDS011;15382;47.578;8.086;2022-08-04T16:22:56;3.05;;;1.00;;
28068;SDS011;15382;47.578;8.086;2022-08-04T16:33:07;2.87;;;0.93;;
28068;SDS011;15382;47.578;8.086;2022-08-04T16:43:14;6.35;;;0.98;;
28068;SDS011;15382;47.578;8.086;2022-08-04T16:53:17;1.37;;;0.90;;
28068;SDS011;15382;47.578;8.086;2022-08-04T17:03:19;1.58;;;1.10;;
28068;SDS011;15382;47.578;8.086;2022-08-04T17:13:21;1.65;;;1.00;;
28068;SDS011;15382;47.578;8.086;2022-08-04T17:33:45;5.75;;;0.95;;
28068;SDS011;15382;47.578;8.086;2022-08-04T17:53:55;3.10;;;1.20;;
28068;SDS011;15382;47.578;8.086;2022-08-04T18:03:57;2.67;;;0.90;;
28068;SDS011;15382;47.578;8.086;2022-08-04T18:13:58;11.27;;;1.65;;
28068;SDS011;15382;47.578;8.086;2022-08-04T18:24:00;6.60;;;1.77;;
28068;SDS011;15382;47.578;8.086;2022-08-04T18:34:02;9.88;;;3.88;;
28068;SDS011;15382;47.578;8.086;2022-08-04T18:44:06;3.00;;;1.75;;
28068;SDS011;15382;47.578;8.086;2022-08-04T18:54:07;8.48;;;1.40;;
28068;SDS011;15382;47.578;8.086;2022-08-04T19:04:08;2.80;;;1.35;;
28068;SDS011;15382;47.578;8.086;2022-08-04T19:14:10;5.68;;;1.50;;
28068;SDS011;15382;47.578;8.086;2022-08-04T19:24:11;4.65;;;1.50;;
28068;SDS011;15382;47.578;8.086;2022-08-04T19:34:12;4.45;;;2.00;;
28068;SDS011;15382;47.578;8.086;2022-08-04T19:44:13;4.78;;;1.80;;
28068;SDS011;15382;47.578;8.086;2022-08-04T19:54:14;3.15;;;1.42;;
28068;SDS011;15382;47.578;8.086;2022-08-04T20:04:15;4.85;;;1.50;;
28068;SDS011;15382;47.578;8.086;2022-08-04T20:14:16;3.00;;;1.85;;
28068;SDS011;15382;47.578;8.086;2022-08-04T20:24:17;2.60;;;1.58;;
28068;SDS011;15382;47.578;8.086;2022-08-04T20:34:18;4.72;;;1.65;;
28068;SDS011;15382;47.578;8.086;2022-08-04T20:44:18;4.18;;;1.77;;
28068;SDS011;15382;47.578;8.086;2022-08-04T21:04:20;2.77;;;1.80;;
28068;SDS011;15382;47.578;8.086;2022-08-04T21:14:31;3.78;;;1.45;;
28068;SDS011;15382;47.578;8.086;2022-08-04T21:24:33;7.45;;;1.88;;
28068;SDS011;15382;47.578;8.086;2022-08-04T21:34:35;8.13;;;1.63;;
28068;SDS011;15382;47.578;8.086;2022-08-04T21:44:36;4.13;;;1.83;;
28068;SDS011;15382;47.578;8.086;2022-08-04T22:04:38;4.10;;;1.97;;
28068;SDS011;15382;47.578;8.086;2022-08-04T22:24:39;3.78;;;1.73;;
28068;SDS011;15382;47.578;8.086;2022-08-04T22:34:40;5.60;;;2.07;;
28068;SDS011;15382;47.578;8.086;2022-08-04T22:44:41;4.00;;;2.07;;
28068;SDS011;15382;47.578;8.086;2022-08-04T23:04:43;3.17;;;1.87;;
28068;SDS011;15382;47.578;8.086;2022-08-04T23:14:44;3.10;;;1.90;;
28068;SDS011;15382;47.578;8.086;2022-08-04T23:24:45;6.85;;;1.90;;
28068;SDS011;15382;47.578;8.086;2022-08-04T23:34:46;2.07;;;1.87;;
28068;SDS011;15382;47.578;8.086;2022-08-04T23:44:47;4.93;;;2.20;;
28068;SDS011;15382;47.578;8.086;2022-08-04T23:54:49;2.50;;;1.98;;
